Chia-i, Taiwan
Current Conditions -  °F | °C
As of 6:30 PM on Thursday 23 Oct 2014 (Local Time) from RCMQ Reporting Station
Broken Clouds Broken Clouds  
Wind Chill: 72°   Ceiling: 4000
Heat Index: 72°   Visibility: 6mi
Dew Point: 61°   Wind: 16mph
Humidity: 69%   Direction: 10°N
Pressure: 29.97"   Gusts: NA
Location:  23.48°N, 120.44°E
Report Text: RCMQ 231030Z 01014KT 9999 FEW012 BKN040 BKN060 22/16 Q1015 NOSIG RMK A2998
Loading
Personal Weather Stations






























Interactive Weather Map
Tropical Storm Tracking
New forecast layout! Learn more

10-Day Weather Forecast

Advertisements
Track Severe Weather on mobile